MMZC/ZCL METAR and TAF weather

Enter ICAO airport designator
Station Type Date Time Source
MMZC METAR 2019/09/21 03:40 UTC NOAA

MMZC 210340Z 15010KT 6SM BKN030 16/13 A3025 RMK 8/800


Station Type Date Time Source
MMZC Decoded METAR 2019/09/21 03:40 UTC NOAA

Zacatecas Airport, Mexico (MMZC) 22-54N 102-41W
Sep 20, 2019 - 11:40 PM EDT / 2019.09.21 0340 UTC
Wind: from the SSE (150 degrees) at 12 MPH (10 KT):0
Visibility: 6 mile(s):0
Sky conditions: mostly cloudy
Temperature: 60 F (16 C)
Dew Point: 55 F (13 C)
Relative Humidity: 82%
Pressure (altimeter): 30.25 in. Hg (1024 hPa)
ob: MMZC 210340Z 15010KT 6SM BKN030 16/13 A3025 RMK 8/800
cycle: 3

Station Type Date Time Source
MMZC TAF 2019/09/21 06:54 UTC NOAA

TAF MMZC 210451Z 2106/2212 16008KT P6SM SCT030 BKN080 TX24/2120Z TN14/2112Z
FM211600 16012KT P6SM SCT030 SCT100
FM220200 16010KT P6SM SCT020 BKN080

Example: see airport list